Matinha, Brazil
Current Conditions -  °F | °C
As of 9:00 AM on Saturday 25 Oct 2014 (Local Time) from SBSL Reporting Station
Broken Clouds Broken Clouds  
Wind Chill: 84°   Ceiling: 1700
Heat Index: 87°   Visibility: 6mi
Dew Point: 68°   Wind: 14mph
Humidity: 58%   Direction: 60°ENE
Pressure: 29.88"   Gusts: NA
Location:  3.1°S, 45.03°W
Report Text: SBSL 251200Z 06012KT 9999 BKN017 29/20 Q1012
Loading
Personal Weather Stations






























Interactive Weather Map
Tropical Storm Tracking
New forecast layout! Learn more

10-Day Weather Forecast

Advertisements
Track Severe Weather on mobile